sensor_id;sensor_type;location;lat;lon;timestamp;temperature;humidity
25568;DHT22;13455;51.480;7.594;2024-02-26T00:02:20;6.00;99.90
25568;DHT22;13455;51.480;7.594;2024-02-26T00:04:46;5.80;99.90
25568;DHT22;13455;51.480;7.594;2024-02-26T00:07:11;5.80;99.90
25568;DHT22;13455;51.480;7.594;2024-02-26T00:09:37;5.80;99.90
25568;DHT22;13455;51.480;7.594;2024-02-26T00:12:03;5.80;99.90
25568;DHT22;13455;51.480;7.594;2024-02-26T00:14:30;5.90;99.90
25568;DHT22;13455;51.480;7.594;2024-02-26T00:16:56;5.90;99.90
25568;DHT22;13455;51.480;7.594;2024-02-26T00:19:21;5.90;99.90
25568;DHT22;13455;51.480;7.594;2024-02-26T00:21:47;5.90;99.90
25568;DHT22;13455;51.480;7.594;2024-02-26T00:24:13;5.90;99.90
25568;DHT22;13455;51.480;7.594;2024-02-26T00:26:38;5.90;99.90
25568;DHT22;13455;51.480;7.594;2024-02-26T00:29:04;5.90;99.90
25568;DHT22;13455;51.480;7.594;2024-02-26T00:31:30;5.90;99.90
25568;DHT22;13455;51.480;7.594;2024-02-26T00:33:56;5.90;99.90
25568;DHT22;13455;51.480;7.594;2024-02-26T00:36:21;6.10;99.90
25568;DHT22;13455;51.480;7.594;2024-02-26T00:38:47;5.90;99.90
25568;DHT22;13455;51.480;7.594;2024-02-26T00:41:17;5.90;99.90
25568;DHT22;13455;51.480;7.594;2024-02-26T00:43:43;5.90;99.90
25568;DHT22;13455;51.480;7.594;2024-02-26T00:46:08;5.90;99.90
25568;DHT22;13455;51.480;7.594;2024-02-26T00:48:35;5.90;99.90
25568;DHT22;13455;51.480;7.594;2024-02-26T00:51:00;5.90;99.90
25568;DHT22;13455;51.480;7.594;2024-02-26T00:53:26;5.90;99.90
25568;DHT22;13455;51.480;7.594;2024-02-26T00:55:52;5.90;99.90
25568;DHT22;13455;51.480;7.594;2024-02-26T00:58:17;5.90;99.90
25568;DHT22;13455;51.480;7.594;2024-02-26T01:00:44;5.90;99.90
25568;DHT22;13455;51.480;7.594;2024-02-26T01:03:10;6.00;99.90
25568;DHT22;13455;51.480;7.594;2024-02-26T01:05:36;5.90;99.90
25568;DHT22;13455;51.480;7.594;2024-02-26T01:08:03;5.90;99.90
25568;DHT22;13455;51.480;7.594;2024-02-26T01:10:29;5.90;99.90
25568;DHT22;13455;51.480;7.594;2024-02-26T01:12:54;5.90;99.90
25568;DHT22;13455;51.480;7.594;2024-02-26T01:15:20;5.90;99.90
25568;DHT22;13455;51.480;7.594;2024-02-26T01:17:52;5.90;99.90
25568;DHT22;13455;51.480;7.594;2024-02-26T01:20:17;5.90;99.90
25568;DHT22;13455;51.480;7.594;2024-02-26T01:22:43;5.90;99.90
25568;DHT22;13455;51.480;7.594;2024-02-26T01:25:09;6.00;99.90
25568;DHT22;13455;51.480;7.594;2024-02-26T01:27:38;5.80;99.90
25568;DHT22;13455;51.480;7.594;2024-02-26T01:30:05;5.80;99.90
25568;DHT22;13455;51.480;7.594;2024-02-26T01:32:31;5.80;99.90
25568;DHT22;13455;51.480;7.594;2024-02-26T01:34:57;5.70;99.90
25568;DHT22;13455;51.480;7.594;2024-02-26T01:37:23;5.70;99.90
25568;DHT22;13455;51.480;7.594;2024-02-26T01:39:48;5.70;99.90
25568;DHT22;13455;51.480;7.594;2024-02-26T01:42:14;5.70;99.90
25568;DHT22;13455;51.480;7.594;2024-02-26T01:44:40;5.70;99.90
25568;DHT22;13455;51.480;7.594;2024-02-26T01:47:07;5.70;99.90
25568;DHT22;13455;51.480;7.594;2024-02-26T01:49:35;5.80;99.90
25568;DHT22;13455;51.480;7.594;2024-02-26T01:52:03;5.80;99.90
25568;DHT22;13455;51.480;7.594;2024-02-26T01:54:30;5.80;99.90
25568;DHT22;13455;51.480;7.594;2024-02-26T01:56:56;5.80;99.90
25568;DHT22;13455;51.480;7.594;2024-02-26T01:59:23;5.80;99.90
25568;DHT22;13455;51.480;7.594;2024-02-26T02:01:53;5.90;99.90
25568;DHT22;13455;51.480;7.594;2024-02-26T02:04:20;5.80;99.90
25568;DHT22;13455;51.480;7.594;2024-02-26T02:06:46;5.80;99.90
25568;DHT22;13455;51.480;7.594;2024-02-26T02:09:12;5.80;99.90
25568;DHT22;13455;51.480;7.594;2024-02-26T02:11:38;5.80;99.90
25568;DHT22;13455;51.480;7.594;2024-02-26T02:14:04;6.10;99.90
25568;DHT22;13455;51.480;7.594;2024-02-26T02:16:29;5.70;99.90
25568;DHT22;13455;51.480;7.594;2024-02-26T02:18:55;5.70;99.90
25568;DHT22;13455;51.480;7.594;2024-02-26T02:21:21;5.70;99.90
25568;DHT22;13455;51.480;7.594;2024-02-26T02:23:46;5.60;99.90
25568;DHT22;13455;51.480;7.594;2024-02-26T02:26:14;5.60;99.90
25568;DHT22;13455;51.480;7.594;2024-02-26T02:28:41;5.60;99.90
25568;DHT22;13455;51.480;7.594;2024-02-26T02:31:07;5.60;99.90
25568;DHT22;13455;51.480;7.594;2024-02-26T02:33:34;5.50;99.90
25568;DHT22;13455;51.480;7.594;2024-02-26T02:36:00;5.50;99.90
25568;DHT22;13455;51.480;7.594;2024-02-26T02:38:25;5.60;99.90
25568;DHT22;13455;51.480;7.594;2024-02-26T02:40:52;5.50;99.90
25568;DHT22;13455;51.480;7.594;2024-02-26T02:43:17;5.50;99.90
25568;DHT22;13455;51.480;7.594;2024-02-26T02:45:43;5.50;99.90
25568;DHT22;13455;51.480;7.594;2024-02-26T02:48:10;5.50;99.90
25568;DHT22;13455;51.480;7.594;2024-02-26T02:50:36;5.50;99.90
25568;DHT22;13455;51.480;7.594;2024-02-26T02:53:01;5.50;99.90
25568;DHT22;13455;51.480;7.594;2024-02-26T02:55:27;5.50;99.90
25568;DHT22;13455;51.480;7.594;2024-02-26T02:57:53;5.50;99.90
25568;DHT22;13455;51.480;7.594;2024-02-26T03:00:19;5.40;99.90
25568;DHT22;13455;51.480;7.594;2024-02-26T03:02:45;5.40;99.90
25568;DHT22;13455;51.480;7.594;2024-02-26T03:05:11;5.50;99.90
25568;DHT22;13455;51.480;7.594;2024-02-26T03:07:37;5.50;99.90
25568;DHT22;13455;51.480;7.594;2024-02-26T03:10:03;5.50;99.90
25568;DHT22;13455;51.480;7.594;2024-02-26T03:12:30;5.50;99.90
25568;DHT22;13455;51.480;7.594;2024-02-26T03:14:56;5.50;99.90
25568;DHT22;13455;51.480;7.594;2024-02-26T03:17:22;5.50;99.90
25568;DHT22;13455;51.480;7.594;2024-02-26T03:19:49;5.50;99.90
25568;DHT22;13455;51.480;7.594;2024-02-26T03:22:19;5.50;99.90
25568;DHT22;13455;51.480;7.594;2024-02-26T03:24:45;5.50;99.90
25568;DHT22;13455;51.480;7.594;2024-02-26T03:27:10;5.50;99.90
25568;DHT22;13455;51.480;7.594;2024-02-26T03:29:37;5.40;99.90
25568;DHT22;13455;51.480;7.594;2024-02-26T03:32:03;5.40;99.90
25568;DHT22;13455;51.480;7.594;2024-02-26T03:34:29;5.40;99.90
25568;DHT22;13455;51.480;7.594;2024-02-26T03:36:56;5.40;99.90
25568;DHT22;13455;51.480;7.594;2024-02-26T03:39:22;5.30;99.90
25568;DHT22;13455;51.480;7.594;2024-02-26T03:41:48;5.30;99.90
25568;DHT22;13455;51.480;7.594;2024-02-26T03:44:14;5.20;99.90
25568;DHT22;13455;51.480;7.594;2024-02-26T03:46:40;5.20;99.90
25568;DHT22;13455;51.480;7.594;2024-02-26T03:49:08;5.20;99.90
25568;DHT22;13455;51.480;7.594;2024-02-26T03:51:33;5.20;99.90
25568;DHT22;13455;51.480;7.594;2024-02-26T03:53:59;5.20;99.90
25568;DHT22;13455;51.480;7.594;2024-02-26T03:56:26;5.20;99.90
25568;DHT22;13455;51.480;7.594;2024-02-26T04:01:18;5.10;99.90
25568;DHT22;13455;51.480;7.594;2024-02-26T04:03:43;5.10;99.90
25568;DHT22;13455;51.480;7.594;2024-02-26T04:06:09;5.00;99.90
25568;DHT22;13455;51.480;7.594;2024-02-26T04:11:09;4.90;99.90
25568;DHT22;13455;51.480;7.594;2024-02-26T04:13:35;4.70;99.90
25568;DHT22;13455;51.480;7.594;2024-02-26T04:16:01;4.70;99.90
25568;DHT22;13455;51.480;7.594;2024-02-26T04:18:29;4.60;99.90
25568;DHT22;13455;51.480;7.594;2024-02-26T04:20:55;4.60;99.90
25568;DHT22;13455;51.480;7.594;2024-02-26T04:23:20;4.50;99.90
25568;DHT22;13455;51.480;7.594;2024-02-26T04:25:46;4.70;99.90
25568;DHT22;13455;51.480;7.594;2024-02-26T04:28:12;4.50;99.90
25568;DHT22;13455;51.480;7.594;2024-02-26T04:30:38;4.60;99.90
25568;DHT22;13455;51.480;7.594;2024-02-26T04:40:21;4.50;99.90
25568;DHT22;13455;51.480;7.594;2024-02-26T04:42:47;4.50;99.90
25568;DHT22;13455;51.480;7.594;2024-02-26T04:45:13;4.50;99.90
25568;DHT22;13455;51.480;7.594;2024-02-26T04:47:38;4.40;99.90
25568;DHT22;13455;51.480;7.594;2024-02-26T04:50:05;4.50;99.90
25568;DHT22;13455;51.480;7.594;2024-02-26T04:52:30;4.50;99.90
25568;DHT22;13455;51.480;7.594;2024-02-26T04:54:56;4.40;99.90
25568;DHT22;13455;51.480;7.594;2024-02-26T04:57:22;4.50;99.90
25568;DHT22;13455;51.480;7.594;2024-02-26T04:59:47;4.60;99.90
25568;DHT22;13455;51.480;7.594;2024-02-26T05:02:13;4.50;99.90
25568;DHT22;13455;51.480;7.594;2024-02-26T05:04:39;4.90;99.90
25568;DHT22;13455;51.480;7.594;2024-02-26T05:07:05;4.60;99.90
25568;DHT22;13455;51.480;7.594;2024-02-26T05:09:32;4.60;99.90
25568;DHT22;13455;51.480;7.594;2024-02-26T05:11:57;4.70;99.90
25568;DHT22;13455;51.480;7.594;2024-02-26T05:14:23;4.60;99.90
25568;DHT22;13455;51.480;7.594;2024-02-26T05:16:49;4.70;99.90
25568;DHT22;13455;51.480;7.594;2024-02-26T05:19:14;4.70;99.90
25568;DHT22;13455;51.480;7.594;2024-02-26T05:21:40;5.40;99.90
25568;DHT22;13455;51.480;7.594;2024-02-26T05:24:06;4.70;99.90
25568;DHT22;13455;51.480;7.594;2024-02-26T05:26:32;4.80;99.90
25568;DHT22;13455;51.480;7.594;2024-02-26T05:28:57;4.70;99.90
25568;DHT22;13455;51.480;7.594;2024-02-26T05:31:26;4.80;99.90
25568;DHT22;13455;51.480;7.594;2024-02-26T05:33:51;4.70;99.90
25568;DHT22;13455;51.480;7.594;2024-02-26T05:36:21;5.10;99.90
25568;DHT22;13455;51.480;7.594;2024-02-26T05:38:48;4.90;99.90
25568;DHT22;13455;51.480;7.594;2024-02-26T05:41:17;4.80;99.90
25568;DHT22;13455;51.480;7.594;2024-02-26T05:43:51;4.80;99.90
25568;DHT22;13455;51.480;7.594;2024-02-26T05:46:17;4.70;99.90
25568;DHT22;13455;51.480;7.594;2024-02-26T05:48:47;4.80;99.90
25568;DHT22;13455;51.480;7.594;2024-02-26T05:51:13;4.80;99.90
25568;DHT22;13455;51.480;7.594;2024-02-26T05:56:06;4.80;99.90
25568;DHT22;13455;51.480;7.594;2024-02-26T05:58:31;4.80;99.90
25568;DHT22;13455;51.480;7.594;2024-02-26T06:00:57;5.30;99.90
25568;DHT22;13455;51.480;7.594;2024-02-26T06:03:22;4.80;99.90
25568;DHT22;13455;51.480;7.594;2024-02-26T06:05:48;4.80;99.90
25568;DHT22;13455;51.480;7.594;2024-02-26T06:08:13;4.80;99.90
25568;DHT22;13455;51.480;7.594;2024-02-26T06:15:31;4.80;99.90
25568;DHT22;13455;51.480;7.594;2024-02-26T06:17:57;4.60;99.90
25568;DHT22;13455;51.480;7.594;2024-02-26T06:20:22;4.80;99.90
25568;DHT22;13455;51.480;7.594;2024-02-26T06:22:48;4.80;99.90
25568;DHT22;13455;51.480;7.594;2024-02-26T06:25:14;4.80;99.90
25568;DHT22;13455;51.480;7.594;2024-02-26T06:27:39;4.80;99.90
25568;DHT22;13455;51.480;7.594;2024-02-26T06:30:05;4.80;99.90
25568;DHT22;13455;51.480;7.594;2024-02-26T06:32:31;4.80;99.90
25568;DHT22;13455;51.480;7.594;2024-02-26T06:34:57;4.70;99.90
25568;DHT22;13455;51.480;7.594;2024-02-26T06:37:23;4.70;99.90
25568;DHT22;13455;51.480;7.594;2024-02-26T06:39:48;4.80;99.90
25568;DHT22;13455;51.480;7.594;2024-02-26T06:42:14;4.80;99.90
25568;DHT22;13455;51.480;7.594;2024-02-26T06:44:39;4.80;99.90
25568;DHT22;13455;51.480;7.594;2024-02-26T06:47:05;4.80;99.90
25568;DHT22;13455;51.480;7.594;2024-02-26T06:49:31;4.80;99.90
25568;DHT22;13455;51.480;7.594;2024-02-26T06:51:56;4.80;99.90
25568;DHT22;13455;51.480;7.594;2024-02-26T06:54:22;4.80;99.90
25568;DHT22;13455;51.480;7.594;2024-02-26T06:56:48;4.90;99.90
25568;DHT22;13455;51.480;7.594;2024-02-26T11:38:03;7.80;99.90
25568;DHT22;13455;51.480;7.594;2024-02-26T11:40:33;7.70;99.90
25568;DHT22;13455;51.480;7.594;2024-02-26T11:42:59;7.60;99.90
25568;DHT22;13455;51.480;7.594;2024-02-26T11:48:15;7.50;99.90
25568;DHT22;13455;51.480;7.594;2024-02-26T12:22:57;8.30;99.90
25568;DHT22;13455;51.480;7.594;2024-02-26T12:25:25;8.30;99.90
25568;DHT22;13455;51.480;7.594;2024-02-26T12:27:52;7.80;99.90
25568;DHT22;13455;51.480;7.594;2024-02-26T12:30:18;8.20;99.90
25568;DHT22;13455;51.480;7.594;2024-02-26T12:32:45;7.90;99.90
25568;DHT22;13455;51.480;7.594;2024-02-26T12:35:11;7.90;99.90
25568;DHT22;13455;51.480;7.594;2024-02-26T12:37:38;7.90;99.90
25568;DHT22;13455;51.480;7.594;2024-02-26T12:40:08;7.90;99.90
25568;DHT22;13455;51.480;7.594;2024-02-26T12:42:35;7.90;99.90
25568;DHT22;13455;51.480;7.594;2024-02-26T12:45:09;7.90;99.90
25568;DHT22;13455;51.480;7.594;2024-02-26T12:47:36;7.90;99.90
25568;DHT22;13455;51.480;7.594;2024-02-26T12:50:02;7.90;99.90
25568;DHT22;13455;51.480;7.594;2024-02-26T12:52:31;7.80;99.90
25568;DHT22;13455;51.480;7.594;2024-02-26T12:54:57;7.80;99.90
25568;DHT22;13455;51.480;7.594;2024-02-26T12:57:22;7.80;99.90
25568;DHT22;13455;51.480;7.594;2024-02-26T12:59:49;7.80;99.90
25568;DHT22;13455;51.480;7.594;2024-02-26T13:02:15;7.80;99.90
25568;DHT22;13455;51.480;7.594;2024-02-26T13:04:41;7.90;99.90
25568;DHT22;13455;51.480;7.594;2024-02-26T13:07:06;8.10;99.90
25568;DHT22;13455;51.480;7.594;2024-02-26T13:09:33;8.00;99.90
25568;DHT22;13455;51.480;7.594;2024-02-26T13:12:04;7.30;99.90
25568;DHT22;13455;51.480;7.594;2024-02-26T13:14:30;8.00;99.90
25568;DHT22;13455;51.480;7.594;2024-02-26T13:17:00;7.90;99.90
25568;DHT22;13455;51.480;7.594;2024-02-26T13:19:26;8.10;99.90
25568;DHT22;13455;51.480;7.594;2024-02-26T13:21:53;8.10;99.90
25568;DHT22;13455;51.480;7.594;2024-02-26T13:24:20;8.10;99.90
25568;DHT22;13455;51.480;7.594;2024-02-26T13:26:46;8.10;99.90
25568;DHT22;13455;51.480;7.594;2024-02-26T13:29:21;8.10;99.90
25568;DHT22;13455;51.480;7.594;2024-02-26T13:31:46;8.10;99.90
25568;DHT22;13455;51.480;7.594;2024-02-26T13:34:23;8.30;99.90
25568;DHT22;13455;51.480;7.594;2024-02-26T13:36:50;8.20;99.90
25568;DHT22;13455;51.480;7.594;2024-02-26T13:39:22;8.20;99.90
25568;DHT22;13455;51.480;7.594;2024-02-26T13:41:48;8.20;99.90
25568;DHT22;13455;51.480;7.594;2024-02-26T13:44:14;8.20;99.90
25568;DHT22;13455;51.480;7.594;2024-02-26T13:46:40;8.00;99.90
25568;DHT22;13455;51.480;7.594;2024-02-26T13:49:08;8.10;99.90
25568;DHT22;13455;51.480;7.594;2024-02-26T13:51:34;8.20;99.90
25568;DHT22;13455;51.480;7.594;2024-02-26T13:54:01;8.20;99.90
25568;DHT22;13455;51.480;7.594;2024-02-26T13:58:53;8.10;99.90
25568;DHT22;13455;51.480;7.594;2024-02-26T14:01:19;8.10;99.90
25568;DHT22;13455;51.480;7.594;2024-02-26T14:03:45;8.20;99.90
25568;DHT22;13455;51.480;7.594;2024-02-26T14:08:37;8.60;99.90
25568;DHT22;13455;51.480;7.594;2024-02-26T14:11:02;8.40;99.90
25568;DHT22;13455;51.480;7.594;2024-02-26T14:13:28;8.70;99.90
25568;DHT22;13455;51.480;7.594;2024-02-26T14:15:54;8.20;99.90
25568;DHT22;13455;51.480;7.594;2024-02-26T14:18:19;8.20;99.90
25568;DHT22;13455;51.480;7.594;2024-02-26T14:20:45;8.10;99.90
25568;DHT22;13455;51.480;7.594;2024-02-26T14:23:11;8.30;99.90
25568;DHT22;13455;51.480;7.594;2024-02-26T14:25:36;8.30;99.90
25568;DHT22;13455;51.480;7.594;2024-02-26T14:28:02;8.10;99.90
25568;DHT22;13455;51.480;7.594;2024-02-26T14:30:28;8.30;99.90
25568;DHT22;13455;51.480;7.594;2024-02-26T14:32:54;8.40;99.90
25568;DHT22;13455;51.480;7.594;2024-02-26T14:35:20;8.50;99.90
25568;DHT22;13455;51.480;7.594;2024-02-26T14:37:45;8.40;99.90
25568;DHT22;13455;51.480;7.594;2024-02-26T14:40:16;8.50;99.90
25568;DHT22;13455;51.480;7.594;2024-02-26T14:42:41;8.60;99.90
25568;DHT22;13455;51.480;7.594;2024-02-26T14:45:07;8.50;99.90
25568;DHT22;13455;51.480;7.594;2024-02-26T14:47:38;8.60;99.90
25568;DHT22;13455;51.480;7.594;2024-02-26T14:50:04;8.90;99.90
25568;DHT22;13455;51.480;7.594;2024-02-26T14:52:30;8.70;99.90
25568;DHT22;13455;51.480;7.594;2024-02-26T14:57:24;8.60;99.90
25568;DHT22;13455;51.480;7.594;2024-02-26T15:04:43;8.60;99.90
25568;DHT22;13455;51.480;7.594;2024-02-26T15:07:09;8.60;99.90
25568;DHT22;13455;51.480;7.594;2024-02-26T15:09:35;9.10;99.90
25568;DHT22;13455;51.480;7.594;2024-02-26T15:12:03;8.70;99.90
25568;DHT22;13455;51.480;7.594;2024-02-26T15:14:32;8.60;99.90
25568;DHT22;13455;51.480;7.594;2024-02-26T15:16:57;8.90;99.90
25568;DHT22;13455;51.480;7.594;2024-02-26T15:19:23;9.10;99.90
25568;DHT22;13455;51.480;7.594;2024-02-26T15:24:15;8.80;99.90
25568;DHT22;13455;51.480;7.594;2024-02-26T15:26:44;9.00;99.90
25568;DHT22;13455;51.480;7.594;2024-02-26T15:31:37;9.50;99.90
25568;DHT22;13455;51.480;7.594;2024-02-26T15:34:03;8.90;99.90
25568;DHT22;13455;51.480;7.594;2024-02-26T15:36:29;8.90;99.90
25568;DHT22;13455;51.480;7.594;2024-02-26T15:38:55;8.70;99.90
25568;DHT22;13455;51.480;7.594;2024-02-26T15:43:48;8.80;99.90
25568;DHT22;13455;51.480;7.594;2024-02-26T15:46:14;9.20;99.90
25568;DHT22;13455;51.480;7.594;2024-02-26T15:48:39;8.70;99.90
25568;DHT22;13455;51.480;7.594;2024-02-26T15:51:05;8.70;99.90
25568;DHT22;13455;51.480;7.594;2024-02-26T15:53:31;8.90;99.90
25568;DHT22;13455;51.480;7.594;2024-02-26T15:55:56;8.80;99.90
25568;DHT22;13455;51.480;7.594;2024-02-26T16:00:49;8.20;99.90
25568;DHT22;13455;51.480;7.594;2024-02-26T16:03:15;8.20;99.90
25568;DHT22;13455;51.480;7.594;2024-02-26T16:05:41;8.20;99.90
25568;DHT22;13455;51.480;7.594;2024-02-26T16:08:18;8.20;99.90
25568;DHT22;13455;51.480;7.594;2024-02-26T16:10:49;8.10;99.90
25568;DHT22;13455;51.480;7.594;2024-02-26T16:13:15;8.10;99.90
25568;DHT22;13455;51.480;7.594;2024-02-26T16:15:45;8.10;99.90
25568;DHT22;13455;51.480;7.594;2024-02-26T16:18:12;8.10;99.90
25568;DHT22;13455;51.480;7.594;2024-02-26T16:20:39;8.10;99.90
25568;DHT22;13455;51.480;7.594;2024-02-26T16:23:04;8.00;99.90
25568;DHT22;13455;51.480;7.594;2024-02-26T16:25:33;8.00;99.90
25568;DHT22;13455;51.480;7.594;2024-02-26T16:27:59;8.00;99.90
25568;DHT22;13455;51.480;7.594;2024-02-26T16:30:25;7.90;99.90
25568;DHT22;13455;51.480;7.594;2024-02-26T16:32:50;7.90;99.90
25568;DHT22;13455;51.480;7.594;2024-02-26T16:35:16;7.80;99.90
25568;DHT22;13455;51.480;7.594;2024-02-26T16:37:42;7.80;99.90
25568;DHT22;13455;51.480;7.594;2024-02-26T16:40:08;7.80;99.90
25568;DHT22;13455;51.480;7.594;2024-02-26T16:42:37;7.80;99.90
25568;DHT22;13455;51.480;7.594;2024-02-26T16:45:03;7.70;99.90
25568;DHT22;13455;51.480;7.594;2024-02-26T16:47:33;7.70;99.90
25568;DHT22;13455;51.480;7.594;2024-02-26T16:49:58;7.80;99.90
25568;DHT22;13455;51.480;7.594;2024-02-26T16:52:24;7.80;99.90
25568;DHT22;13455;51.480;7.594;2024-02-26T16:54:51;7.70;99.90
25568;DHT22;13455;51.480;7.594;2024-02-26T16:57:16;7.60;99.90
25568;DHT22;13455;51.480;7.594;2024-02-26T16:59:42;7.70;99.90
25568;DHT22;13455;51.480;7.594;2024-02-26T17:02:08;7.60;99.90
25568;DHT22;13455;51.480;7.594;2024-02-26T17:04:34;7.60;99.90
25568;DHT22;13455;51.480;7.594;2024-02-26T17:07:00;7.60;99.90
25568;DHT22;13455;51.480;7.594;2024-02-26T17:09:27;7.50;99.90
25568;DHT22;13455;51.480;7.594;2024-02-26T17:11:52;7.50;99.90
25568;DHT22;13455;51.480;7.594;2024-02-26T17:14:22;7.50;99.90
25568;DHT22;13455;51.480;7.594;2024-02-26T17:16:49;7.40;99.90
25568;DHT22;13455;51.480;7.594;2024-02-26T17:26:34;7.70;99.90
25568;DHT22;13455;51.480;7.594;2024-02-26T17:29:02;8.00;99.90
25568;DHT22;13455;51.480;7.594;2024-02-26T17:31:28;7.40;99.90
25568;DHT22;13455;51.480;7.594;2024-02-26T17:33:57;7.40;99.90
25568;DHT22;13455;51.480;7.594;2024-02-26T17:36:22;7.70;99.90
25568;DHT22;13455;51.480;7.594;2024-02-26T17:41:15;7.20;99.90
25568;DHT22;13455;51.480;7.594;2024-02-26T17:43:41;7.20;99.90
25568;DHT22;13455;51.480;7.594;2024-02-26T17:46:07;7.30;99.90
25568;DHT22;13455;51.480;7.594;2024-02-26T17:48:36;7.10;99.90
25568;DHT22;13455;51.480;7.594;2024-02-26T17:51:01;7.20;99.90
25568;DHT22;13455;51.480;7.594;2024-02-26T17:53:29;7.10;99.90
25568;DHT22;13455;51.480;7.594;2024-02-26T17:55:54;7.10;99.90
25568;DHT22;13455;51.480;7.594;2024-02-26T17:58:22;7.10;99.90
25568;DHT22;13455;51.480;7.594;2024-02-26T18:00:48;7.00;99.90
25568;DHT22;13455;51.480;7.594;2024-02-26T18:03:14;7.30;99.90
25568;DHT22;13455;51.480;7.594;2024-02-26T18:05:40;7.10;99.90
25568;DHT22;13455;51.480;7.594;2024-02-26T18:08:07;7.00;99.90
25568;DHT22;13455;51.480;7.594;2024-02-26T18:10:33;6.80;99.90
25568;DHT22;13455;51.480;7.594;2024-02-26T18:12:59;6.90;99.90
25568;DHT22;13455;51.480;7.594;2024-02-26T18:15:26;7.00;99.90
25568;DHT22;13455;51.480;7.594;2024-02-26T18:17:52;6.60;99.90
25568;DHT22;13455;51.480;7.594;2024-02-26T18:20:18;7.00;99.90
25568;DHT22;13455;51.480;7.594;2024-02-26T18:22:44;7.00;99.90
25568;DHT22;13455;51.480;7.594;2024-02-26T18:25:10;7.00;99.90
25568;DHT22;13455;51.480;7.594;2024-02-26T18:27:39;7.20;99.90
25568;DHT22;13455;51.480;7.594;2024-02-26T18:30:07;6.90;99.90
25568;DHT22;13455;51.480;7.594;2024-02-26T18:32:34;7.10;99.90
25568;DHT22;13455;51.480;7.594;2024-02-26T18:35:00;7.10;99.90
25568;DHT22;13455;51.480;7.594;2024-02-26T18:37:26;6.80;99.90
25568;DHT22;13455;51.480;7.594;2024-02-26T18:39:51;6.90;99.90
25568;DHT22;13455;51.480;7.594;2024-02-26T18:42:18;7.00;99.90
25568;DHT22;13455;51.480;7.594;2024-02-26T18:44:45;7.90;99.90
25568;DHT22;13455;51.480;7.594;2024-02-26T18:47:10;7.00;99.90
25568;DHT22;13455;51.480;7.594;2024-02-26T18:49:40;7.00;99.90
25568;DHT22;13455;51.480;7.594;2024-02-26T18:52:07;6.90;99.90
25568;DHT22;13455;51.480;7.594;2024-02-26T18:54:32;7.00;99.90
25568;DHT22;13455;51.480;7.594;2024-02-26T18:56:58;6.80;99.90
25568;DHT22;13455;51.480;7.594;2024-02-26T19:01:50;7.00;99.90
25568;DHT22;13455;51.480;7.594;2024-02-26T19:04:15;7.00;99.90
25568;DHT22;13455;51.480;7.594;2024-02-26T19:06:44;7.00;99.90
25568;DHT22;13455;51.480;7.594;2024-02-26T19:09:10;7.00;99.90
25568;DHT22;13455;51.480;7.594;2024-02-26T19:11:35;7.00;99.90
25568;DHT22;13455;51.480;7.594;2024-02-26T19:14:01;7.10;99.90
25568;DHT22;13455;51.480;7.594;2024-02-26T19:16:27;7.00;99.90
25568;DHT22;13455;51.480;7.594;2024-02-26T19:18:54;7.00;99.90
25568;DHT22;13455;51.480;7.594;2024-02-26T19:21:19;7.00;99.90
25568;DHT22;13455;51.480;7.594;2024-02-26T19:23:48;7.00;99.90
25568;DHT22;13455;51.480;7.594;2024-02-26T19:26:13;7.00;99.90
25568;DHT22;13455;51.480;7.594;2024-02-26T19:28:39;7.00;99.90
25568;DHT22;13455;51.480;7.594;2024-02-26T19:31:10;7.00;99.90
25568;DHT22;13455;51.480;7.594;2024-02-26T19:33:36;7.00;99.90
25568;DHT22;13455;51.480;7.594;2024-02-26T19:36:02;7.00;99.90
25568;DHT22;13455;51.480;7.594;2024-02-26T19:38:28;7.00;99.90
25568;DHT22;13455;51.480;7.594;2024-02-26T19:40:53;7.00;99.90
25568;DHT22;13455;51.480;7.594;2024-02-26T19:43:19;7.00;99.90
25568;DHT22;13455;51.480;7.594;2024-02-26T19:45:44;6.90;99.90
25568;DHT22;13455;51.480;7.594;2024-02-26T19:48:11;6.90;99.90
25568;DHT22;13455;51.480;7.594;2024-02-26T19:50:37;7.00;99.90
25568;DHT22;13455;51.480;7.594;2024-02-26T19:53:03;7.00;99.90
25568;DHT22;13455;51.480;7.594;2024-02-26T19:55:29;7.00;99.90
25568;DHT22;13455;51.480;7.594;2024-02-26T19:57:55;7.00;99.90
25568;DHT22;13455;51.480;7.594;2024-02-26T20:00:22;7.00;99.90
25568;DHT22;13455;51.480;7.594;2024-02-26T20:02:47;7.00;99.90
25568;DHT22;13455;51.480;7.594;2024-02-26T20:05:13;6.90;99.90
25568;DHT22;13455;51.480;7.594;2024-02-26T20:07:39;6.90;99.90
25568;DHT22;13455;51.480;7.594;2024-02-26T20:10:05;6.90;99.90
25568;DHT22;13455;51.480;7.594;2024-02-26T20:12:31;6.90;99.90
25568;DHT22;13455;51.480;7.594;2024-02-26T20:14:56;6.90;99.90
25568;DHT22;13455;51.480;7.594;2024-02-26T20:17:22;6.90;99.90
25568;DHT22;13455;51.480;7.594;2024-02-26T20:19:48;6.90;99.90
25568;DHT22;13455;51.480;7.594;2024-02-26T20:22:13;6.90;99.90
25568;DHT22;13455;51.480;7.594;2024-02-26T20:24:39;6.90;99.90
25568;DHT22;13455;51.480;7.594;2024-02-26T20:27:05;6.80;99.90
25568;DHT22;13455;51.480;7.594;2024-02-26T20:29:32;6.90;99.90
25568;DHT22;13455;51.480;7.594;2024-02-26T20:31:59;6.80;99.90
25568;DHT22;13455;51.480;7.594;2024-02-26T20:34:24;6.80;99.90
25568;DHT22;13455;51.480;7.594;2024-02-26T20:36:50;6.90;99.90
25568;DHT22;13455;51.480;7.594;2024-02-26T20:39:16;6.90;99.90
25568;DHT22;13455;51.480;7.594;2024-02-26T20:41:42;6.80;99.90
25568;DHT22;13455;51.480;7.594;2024-02-26T20:44:09;6.90;99.90
25568;DHT22;13455;51.480;7.594;2024-02-26T20:46:42;7.00;99.90
25568;DHT22;13455;51.480;7.594;2024-02-26T20:49:08;6.80;99.90
25568;DHT22;13455;51.480;7.594;2024-02-26T20:51:34;6.90;99.90
25568;DHT22;13455;51.480;7.594;2024-02-26T20:54:01;6.90;99.90
25568;DHT22;13455;51.480;7.594;2024-02-26T20:56:26;6.90;99.90
25568;DHT22;13455;51.480;7.594;2024-02-26T20:58:52;6.80;99.90
25568;DHT22;13455;51.480;7.594;2024-02-26T21:01:18;7.00;99.90
25568;DHT22;13455;51.480;7.594;2024-02-26T21:03:43;6.80;99.90
25568;DHT22;13455;51.480;7.594;2024-02-26T21:06:09;6.80;99.90
25568;DHT22;13455;51.480;7.594;2024-02-26T21:08:35;6.80;99.90
25568;DHT22;13455;51.480;7.594;2024-02-26T21:11:01;6.90;99.90
25568;DHT22;13455;51.480;7.594;2024-02-26T21:13:28;6.90;99.90
25568;DHT22;13455;51.480;7.594;2024-02-26T21:15:54;6.80;99.90
25568;DHT22;13455;51.480;7.594;2024-02-26T21:18:20;6.90;99.90
25568;DHT22;13455;51.480;7.594;2024-02-26T21:20:46;6.90;99.90
25568;DHT22;13455;51.480;7.594;2024-02-26T21:23:12;6.80;99.90
25568;DHT22;13455;51.480;7.594;2024-02-26T21:25:38;6.80;99.90
25568;DHT22;13455;51.480;7.594;2024-02-26T21:28:03;6.80;99.90
25568;DHT22;13455;51.480;7.594;2024-02-26T21:30:31;6.80;99.90
25568;DHT22;13455;51.480;7.594;2024-02-26T21:32:56;6.80;99.90
25568;DHT22;13455;51.480;7.594;2024-02-26T21:35:22;6.80;99.90
25568;DHT22;13455;51.480;7.594;2024-02-26T21:37:48;6.80;99.90
25568;DHT22;13455;51.480;7.594;2024-02-26T21:40:14;6.80;99.90
25568;DHT22;13455;51.480;7.594;2024-02-26T21:42:40;6.80;99.90
25568;DHT22;13455;51.480;7.594;2024-02-26T21:45:11;6.80;99.90
25568;DHT22;13455;51.480;7.594;2024-02-26T21:47:37;6.80;99.90